sensor_id;sensor_type;location;lat;lon;timestamp;pressure;altitude;pressure_sealevel;temperature;humidity
65880;BME280;52661;51.364;6.054;2022-08-03T00:01:15;101264.50;;;22.71;71.16
65880;BME280;52661;51.364;6.054;2022-08-03T00:03:41;101259.72;;;22.71;71.00
65880;BME280;52661;51.364;6.054;2022-08-03T00:06:06;101260.19;;;22.70;70.48
65880;BME280;52661;51.364;6.054;2022-08-03T00:08:32;101260.25;;;22.48;71.05
65880;BME280;52661;51.364;6.054;2022-08-03T00:10:57;101254.88;;;22.44;71.19
65880;BME280;52661;51.364;6.054;2022-08-03T00:13:23;101263.66;;;22.52;71.07
65880;BME280;52661;51.364;6.054;2022-08-03T00:15:49;101257.81;;;22.59;70.59
65880;BME280;52661;51.364;6.054;2022-08-03T00:18:14;101263.66;;;22.61;70.38
65880;BME280;52661;51.364;6.054;2022-08-03T00:20:39;101267.03;;;22.56;70.67
65880;BME280;52661;51.364;6.054;2022-08-03T00:23:05;101265.69;;;22.61;70.77
65880;BME280;52661;51.364;6.054;2022-08-03T00:25:31;101264.56;;;22.58;70.52
65880;BME280;52661;51.364;6.054;2022-08-03T00:27:56;101263.44;;;22.37;71.31
65880;BME280;52661;51.364;6.054;2022-08-03T00:30:22;101255.13;;;22.28;71.70
65880;BME280;52661;51.364;6.054;2022-08-03T00:32:47;101257.00;;;22.31;71.88
65880;BME280;52661;51.364;6.054;2022-08-03T00:35:12;101258.63;;;22.20;73.50
65880;BME280;52661;51.364;6.054;2022-08-03T00:37:38;101265.53;;;22.15;74.14
65880;BME280;52661;51.364;6.054;2022-08-03T00:40:04;101254.31;;;22.19;73.60
65880;BME280;52661;51.364;6.054;2022-08-03T00:42:29;101266.16;;;22.19;73.12
65880;BME280;52661;51.364;6.054;2022-08-03T00:44:55;101258.00;;;22.16;73.32
65880;BME280;52661;51.364;6.054;2022-08-03T00:47:20;101254.50;;;22.24;72.84
65880;BME280;52661;51.364;6.054;2022-08-03T00:49:45;101249.13;;;22.30;72.47
65880;BME280;52661;51.364;6.054;2022-08-03T00:52:12;101250.63;;;22.22;71.86
65880;BME280;52661;51.364;6.054;2022-08-03T00:54:38;101247.38;;;22.14;72.56
65880;BME280;52661;51.364;6.054;2022-08-03T00:57:03;101252.25;;;22.01;73.33
65880;BME280;52661;51.364;6.054;2022-08-03T00:59:29;101245.44;;;22.24;72.62
65880;BME280;52661;51.364;6.054;2022-08-03T01:01:55;101244.47;;;22.18;72.31
65880;BME280;52661;51.364;6.054;2022-08-03T01:04:21;101242.47;;;22.09;72.43
65880;BME280;52661;51.364;6.054;2022-08-03T01:06:51;101239.75;;;22.27;72.27
65880;BME280;52661;51.364;6.054;2022-08-03T01:09:35;101232.97;;;22.19;73.29
65880;BME280;52661;51.364;6.054;2022-08-03T01:12:08;101239.50;;;22.03;73.56
65880;BME280;52661;51.364;6.054;2022-08-03T01:14:45;101241.53;;;21.81;74.54
65880;BME280;52661;51.364;6.054;2022-08-03T01:17:30;101236.84;;;21.91;74.34
65880;BME280;52661;51.364;6.054;2022-08-03T01:20:08;101230.91;;;22.01;73.26
65880;BME280;52661;51.364;6.054;2022-08-03T01:30:29;101221.84;;;21.70;74.72
65880;BME280;52661;51.364;6.054;2022-08-03T01:33:05;101234.91;;;21.48;75.72
65880;BME280;52661;51.364;6.054;2022-08-03T01:35:50;101226.91;;;21.50;74.87
65880;BME280;52661;51.364;6.054;2022-08-03T01:38:23;101222.59;;;21.49;74.75
65880;BME280;52661;51.364;6.054;2022-08-03T01:40:51;101222.16;;;21.50;74.72
65880;BME280;52661;51.364;6.054;2022-08-03T01:43:24;101223.84;;;21.48;74.65
65880;BME280;52661;51.364;6.054;2022-08-03T01:45:53;101219.41;;;21.50;74.90
65880;BME280;52661;51.364;6.054;2022-08-03T01:48:20;101216.50;;;21.54;74.51
65880;BME280;52661;51.364;6.054;2022-08-03T01:50:47;101219.84;;;21.49;74.71
65880;BME280;52661;51.364;6.054;2022-08-03T01:53:14;101220.88;;;21.42;74.81
65880;BME280;52661;51.364;6.054;2022-08-03T01:55:44;101220.31;;;21.26;75.55
65880;BME280;52661;51.364;6.054;2022-08-03T01:58:12;101217.09;;;21.27;75.89
65880;BME280;52661;51.364;6.054;2022-08-03T02:00:39;101214.97;;;21.31;75.68
65880;BME280;52661;51.364;6.054;2022-08-03T02:03:06;101211.31;;;21.34;75.29
65880;BME280;52661;51.364;6.054;2022-08-03T02:05:33;101215.06;;;21.40;75.31
65880;BME280;52661;51.364;6.054;2022-08-03T02:08:00;101213.84;;;21.41;74.77
65880;BME280;52661;51.364;6.054;2022-08-03T02:10:28;101210.75;;;21.39;74.95
65880;BME280;52661;51.364;6.054;2022-08-03T02:12:56;101225.09;;;21.56;74.59
65880;BME280;52661;51.364;6.054;2022-08-03T02:15:24;101222.44;;;21.43;75.02
65880;BME280;52661;51.364;6.054;2022-08-03T02:17:52;101215.31;;;21.33;75.05
65880;BME280;52661;51.364;6.054;2022-08-03T02:20:19;101213.97;;;21.38;74.61
65880;BME280;52661;51.364;6.054;2022-08-03T02:22:45;101211.25;;;21.25;74.69
65880;BME280;52661;51.364;6.054;2022-08-03T02:25:12;101212.31;;;21.19;75.03
65880;BME280;52661;51.364;6.054;2022-08-03T02:27:42;101212.09;;;21.13;75.11
65880;BME280;52661;51.364;6.054;2022-08-03T02:30:11;101207.25;;;21.04;75.14
65880;BME280;52661;51.364;6.054;2022-08-03T02:32:39;101211.03;;;20.98;75.33
65880;BME280;52661;51.364;6.054;2022-08-03T02:35:10;101212.91;;;21.01;74.98
65880;BME280;52661;51.364;6.054;2022-08-03T02:37:41;101206.56;;;21.13;74.97
65880;BME280;52661;51.364;6.054;2022-08-03T02:40:08;101210.06;;;21.26;74.26
65880;BME280;52661;51.364;6.054;2022-08-03T02:42:34;101206.44;;;21.17;74.47
65880;BME280;52661;51.364;6.054;2022-08-03T02:45:06;101204.81;;;21.06;75.09
65880;BME280;52661;51.364;6.054;2022-08-03T02:47:34;101207.03;;;21.12;74.92
65880;BME280;52661;51.364;6.054;2022-08-03T02:50:01;101203.72;;;21.04;75.20
65880;BME280;52661;51.364;6.054;2022-08-03T02:52:29;101211.38;;;20.87;75.51
65880;BME280;52661;51.364;6.054;2022-08-03T02:54:59;101205.88;;;20.87;76.11
65880;BME280;52661;51.364;6.054;2022-08-03T02:57:28;101203.84;;;21.00;75.63
65880;BME280;52661;51.364;6.054;2022-08-03T02:59:55;101208.16;;;21.01;75.49
65880;BME280;52661;51.364;6.054;2022-08-03T03:02:22;101196.78;;;20.99;75.54
65880;BME280;52661;51.364;6.054;2022-08-03T03:04:49;101204.09;;;20.93;75.95
65880;BME280;52661;51.364;6.054;2022-08-03T03:07:15;101197.59;;;20.87;76.06
65880;BME280;52661;51.364;6.054;2022-08-03T03:09:42;101203.44;;;20.89;75.70
65880;BME280;52661;51.364;6.054;2022-08-03T03:12:08;101202.16;;;20.81;76.08
65880;BME280;52661;51.364;6.054;2022-08-03T03:14:36;101204.13;;;20.81;76.40
65880;BME280;52661;51.364;6.054;2022-08-03T03:17:02;101209.00;;;20.77;76.53
65880;BME280;52661;51.364;6.054;2022-08-03T03:19:29;101204.19;;;20.68;77.27
65880;BME280;52661;51.364;6.054;2022-08-03T03:21:58;101204.19;;;20.68;77.30
65880;BME280;52661;51.364;6.054;2022-08-03T03:24:25;101198.97;;;20.70;77.24
65880;BME280;52661;51.364;6.054;2022-08-03T03:26:51;101194.47;;;20.76;76.89
65880;BME280;52661;51.364;6.054;2022-08-03T03:29:17;101200.53;;;20.71;77.33
65880;BME280;52661;51.364;6.054;2022-08-03T03:31:42;101197.13;;;20.67;77.47
65880;BME280;52661;51.364;6.054;2022-08-03T03:34:08;101193.28;;;20.65;77.47
65880;BME280;52661;51.364;6.054;2022-08-03T03:36:34;101196.56;;;20.72;77.23
65880;BME280;52661;51.364;6.054;2022-08-03T03:38:59;101198.66;;;20.68;77.55
65880;BME280;52661;51.364;6.054;2022-08-03T03:41:25;101197.69;;;20.62;78.05
65880;BME280;52661;51.364;6.054;2022-08-03T03:43:50;101203.28;;;20.71;77.93
65880;BME280;52661;51.364;6.054;2022-08-03T03:46:16;101202.50;;;20.71;77.87
65880;BME280;52661;51.364;6.054;2022-08-03T03:48:41;101202.75;;;20.63;78.26
65880;BME280;52661;51.364;6.054;2022-08-03T03:51:08;101203.56;;;20.51;78.79
65880;BME280;52661;51.364;6.054;2022-08-03T03:53:34;101198.91;;;20.61;78.41
65880;BME280;52661;51.364;6.054;2022-08-03T03:55:59;101204.75;;;20.63;78.34
65880;BME280;52661;51.364;6.054;2022-08-03T03:58:25;101208.19;;;20.54;78.82
65880;BME280;52661;51.364;6.054;2022-08-03T04:00:50;101207.25;;;20.36;79.77
65880;BME280;52661;51.364;6.054;2022-08-03T04:03:18;101201.16;;;20.41;79.65
65880;BME280;52661;51.364;6.054;2022-08-03T04:05:43;101201.81;;;20.45;79.54
65880;BME280;52661;51.364;6.054;2022-08-03T04:08:27;101201.25;;;20.37;79.86
65880;BME280;52661;51.364;6.054;2022-08-03T04:11:27;101201.16;;;20.41;79.60
65880;BME280;52661;51.364;6.054;2022-08-03T04:13:57;101202.16;;;20.47;79.59
65880;BME280;52661;51.364;6.054;2022-08-03T04:16:28;101198.72;;;20.43;79.98
65880;BME280;52661;51.364;6.054;2022-08-03T04:18:58;101201.91;;;20.41;80.26
65880;BME280;52661;51.364;6.054;2022-08-03T04:21:25;101202.25;;;20.43;80.25
65880;BME280;52661;51.364;6.054;2022-08-03T04:23:55;101202.63;;;20.33;80.75
65880;BME280;52661;51.364;6.054;2022-08-03T04:26:23;101202.16;;;20.34;80.84
65880;BME280;52661;51.364;6.054;2022-08-03T04:28:53;101197.50;;;20.44;80.25
65880;BME280;52661;51.364;6.054;2022-08-03T04:31:21;101200.84;;;20.39;80.63
65880;BME280;52661;51.364;6.054;2022-08-03T04:33:49;101201.25;;;20.37;80.55
65880;BME280;52661;51.364;6.054;2022-08-03T04:36:19;101200.25;;;20.44;80.34
65880;BME280;52661;51.364;6.054;2022-08-03T04:38:56;101202.81;;;20.51;80.21
65880;BME280;52661;51.364;6.054;2022-08-03T04:41:24;101204.31;;;20.52;80.09
65880;BME280;52661;51.364;6.054;2022-08-03T04:43:52;101197.78;;;20.58;80.04
65880;BME280;52661;51.364;6.054;2022-08-03T04:46:21;101218.22;;;20.61;79.96
65880;BME280;52661;51.364;6.054;2022-08-03T04:48:47;101218.53;;;20.63;79.80
65880;BME280;52661;51.364;6.054;2022-08-03T04:51:13;101222.19;;;20.60;80.15
65880;BME280;52661;51.364;6.054;2022-08-03T04:53:39;101225.25;;;20.62;79.88
65880;BME280;52661;51.364;6.054;2022-08-03T04:56:05;101226.91;;;20.72;79.60
65880;BME280;52661;51.364;6.054;2022-08-03T04:58:31;101229.66;;;20.72;79.78
65880;BME280;52661;51.364;6.054;2022-08-03T05:00:57;101232.53;;;20.69;80.12
65880;BME280;52661;51.364;6.054;2022-08-03T05:03:22;101233.53;;;20.62;80.21
65880;BME280;52661;51.364;6.054;2022-08-03T05:05:47;101227.94;;;20.53;81.06
65880;BME280;52661;51.364;6.054;2022-08-03T05:08:12;101228.16;;;20.46;81.24
65880;BME280;52661;51.364;6.054;2022-08-03T05:10:38;101222.09;;;20.51;81.42
65880;BME280;52661;51.364;6.054;2022-08-03T05:13:03;101225.28;;;20.49;81.59
65880;BME280;52661;51.364;6.054;2022-08-03T05:15:29;101227.50;;;20.42;81.83
65880;BME280;52661;51.364;6.054;2022-08-03T05:17:54;101238.00;;;20.34;82.10
65880;BME280;52661;51.364;6.054;2022-08-03T05:20:19;101231.16;;;20.39;82.12
65880;BME280;52661;51.364;6.054;2022-08-03T05:22:45;101231.94;;;20.39;82.21
65880;BME280;52661;51.364;6.054;2022-08-03T05:25:10;101231.81;;;20.43;82.06
65880;BME280;52661;51.364;6.054;2022-08-03T05:27:35;101227.50;;;20.42;82.45
65880;BME280;52661;51.364;6.054;2022-08-03T05:30:01;101237.22;;;20.46;82.40
65880;BME280;52661;51.364;6.054;2022-08-03T05:32:26;101234.13;;;20.44;82.04
65880;BME280;52661;51.364;6.054;2022-08-03T05:34:52;101233.66;;;20.58;82.07
65880;BME280;52661;51.364;6.054;2022-08-03T05:37:17;101237.19;;;20.59;81.67
65880;BME280;52661;51.364;6.054;2022-08-03T05:39:43;101235.84;;;20.63;81.62
65880;BME280;52661;51.364;6.054;2022-08-03T05:42:08;101236.69;;;20.73;81.46
65880;BME280;52661;51.364;6.054;2022-08-03T05:44:34;101237.38;;;20.77;81.81
65880;BME280;52661;51.364;6.054;2022-08-03T05:47:03;101238.66;;;20.85;81.24
65880;BME280;52661;51.364;6.054;2022-08-03T05:49:28;101237.41;;;20.99;81.16
65880;BME280;52661;51.364;6.054;2022-08-03T05:51:53;101240.63;;;20.97;80.89
65880;BME280;52661;51.364;6.054;2022-08-03T05:54:19;101241.28;;;21.01;80.38
65880;BME280;52661;51.364;6.054;2022-08-03T05:56:44;101238.94;;;21.00;80.53
65880;BME280;52661;51.364;6.054;2022-08-03T05:59:10;101241.03;;;21.08;80.24
65880;BME280;52661;51.364;6.054;2022-08-03T06:01:35;101242.03;;;21.15;80.77
65880;BME280;52661;51.364;6.054;2022-08-03T06:04:00;101239.19;;;21.27;80.22
65880;BME280;52661;51.364;6.054;2022-08-03T06:06:25;101241.59;;;21.38;80.20
65880;BME280;52661;51.364;6.054;2022-08-03T06:08:51;101246.06;;;21.44;79.41
65880;BME280;52661;51.364;6.054;2022-08-03T06:11:16;101247.16;;;21.47;79.20
65880;BME280;52661;51.364;6.054;2022-08-03T06:13:42;101247.22;;;21.56;79.49
65880;BME280;52661;51.364;6.054;2022-08-03T06:16:08;101243.44;;;21.63;79.14
65880;BME280;52661;51.364;6.054;2022-08-03T06:18:34;101252.53;;;21.72;79.42
65880;BME280;52661;51.364;6.054;2022-08-03T06:21:00;101256.84;;;21.73;78.68
65880;BME280;52661;51.364;6.054;2022-08-03T06:23:25;101251.19;;;21.77;78.97
65880;BME280;52661;51.364;6.054;2022-08-03T06:25:50;101249.91;;;21.69;77.73
65880;BME280;52661;51.364;6.054;2022-08-03T06:28:16;101244.06;;;21.67;78.20
65880;BME280;52661;51.364;6.054;2022-08-03T06:30:42;101254.09;;;21.73;78.57
65880;BME280;52661;51.364;6.054;2022-08-03T06:33:08;101247.00;;;21.72;78.30
65880;BME280;52661;51.364;6.054;2022-08-03T06:35:33;101263.91;;;21.74;78.31
65880;BME280;52661;51.364;6.054;2022-08-03T06:37:58;101254.00;;;21.64;77.92
65880;BME280;52661;51.364;6.054;2022-08-03T06:40:24;101261.91;;;21.75;77.59
65880;BME280;52661;51.364;6.054;2022-08-03T06:43:01;101258.28;;;21.87;76.51
65880;BME280;52661;51.364;6.054;2022-08-03T06:45:28;101262.91;;;21.90;76.97
65880;BME280;52661;51.364;6.054;2022-08-03T06:48:07;101263.38;;;22.10;75.19
65880;BME280;52661;51.364;6.054;2022-08-03T06:50:34;101262.97;;;22.30;75.12
65880;BME280;52661;51.364;6.054;2022-08-03T06:53:00;101271.88;;;22.34;74.72
65880;BME280;52661;51.364;6.054;2022-08-03T06:55:26;101265.91;;;22.35;74.64
65880;BME280;52661;51.364;6.054;2022-08-03T06:57:52;101263.28;;;22.32;74.65
65880;BME280;52661;51.364;6.054;2022-08-03T07:02:43;101270.09;;;22.49;74.37
65880;BME280;52661;51.364;6.054;2022-08-03T07:05:09;101275.00;;;22.54;73.08
65880;BME280;52661;51.364;6.054;2022-08-03T07:07:35;101268.88;;;22.59;74.04
65880;BME280;52661;51.364;6.054;2022-08-03T07:10:01;101268.34;;;22.73;73.80
65880;BME280;52661;51.364;6.054;2022-08-03T07:12:27;101272.06;;;22.88;72.22
65880;BME280;52661;51.364;6.054;2022-08-03T07:14:54;101273.59;;;22.89;72.76
65880;BME280;52661;51.364;6.054;2022-08-03T07:17:20;101277.88;;;22.90;71.77
65880;BME280;52661;51.364;6.054;2022-08-03T07:19:45;101277.13;;;22.90;71.61
65880;BME280;52661;51.364;6.054;2022-08-03T07:22:10;101280.34;;;22.97;72.31
65880;BME280;52661;51.364;6.054;2022-08-03T07:24:36;101281.31;;;23.03;72.03
65880;BME280;52661;51.364;6.054;2022-08-03T07:27:02;101280.38;;;23.07;70.49
65880;BME280;52661;51.364;6.054;2022-08-03T07:29:27;101280.38;;;23.07;70.16
65880;BME280;52661;51.364;6.054;2022-08-03T07:31:53;101295.28;;;23.09;69.98
65880;BME280;52661;51.364;6.054;2022-08-03T07:34:18;101293.00;;;23.08;69.80
65880;BME280;52661;51.364;6.054;2022-08-03T07:36:43;101288.06;;;23.12;67.76
65880;BME280;52661;51.364;6.054;2022-08-03T07:39:09;101282.97;;;23.19;68.80
65880;BME280;52661;51.364;6.054;2022-08-03T07:41:34;101286.69;;;23.25;68.22
65880;BME280;52661;51.364;6.054;2022-08-03T07:44:00;101282.19;;;23.37;67.82
65880;BME280;52661;51.364;6.054;2022-08-03T07:46:25;101282.69;;;23.44;67.22
65880;BME280;52661;51.364;6.054;2022-08-03T07:48:50;101283.59;;;23.60;66.56
65880;BME280;52661;51.364;6.054;2022-08-03T07:51:16;101280.66;;;23.63;66.71
65880;BME280;52661;51.364;6.054;2022-08-03T07:53:42;101285.88;;;23.70;65.96
65880;BME280;52661;51.364;6.054;2022-08-03T07:56:07;101292.03;;;23.74;66.25
65880;BME280;52661;51.364;6.054;2022-08-03T07:58:34;101281.44;;;23.73;66.69
65880;BME280;52661;51.364;6.054;2022-08-03T08:01:00;101289.72;;;23.82;66.30
65880;BME280;52661;51.364;6.054;2022-08-03T08:03:25;101283.38;;;23.90;65.54
65880;BME280;52661;51.364;6.054;2022-08-03T08:05:51;101289.94;;;24.02;64.17
65880;BME280;52661;51.364;6.054;2022-08-03T08:08:18;101279.94;;;24.14;64.16
65880;BME280;52661;51.364;6.054;2022-08-03T08:10:43;101281.03;;;24.16;63.89
65880;BME280;52661;51.364;6.054;2022-08-03T08:13:08;101282.81;;;24.28;63.47
65880;BME280;52661;51.364;6.054;2022-08-03T08:15:33;101281.13;;;24.31;62.68
65880;BME280;52661;51.364;6.054;2022-08-03T08:18:00;101277.75;;;24.27;62.43
65880;BME280;52661;51.364;6.054;2022-08-03T08:20:28;101277.84;;;24.32;62.96
65880;BME280;52661;51.364;6.054;2022-08-03T08:22:55;101286.16;;;24.41;61.49
65880;BME280;52661;51.364;6.054;2022-08-03T08:25:22;101274.69;;;24.48;60.54
65880;BME280;52661;51.364;6.054;2022-08-03T08:27:48;101279.59;;;24.54;62.29
65880;BME280;52661;51.364;6.054;2022-08-03T08:30:16;101280.84;;;24.53;63.17
65880;BME280;52661;51.364;6.054;2022-08-03T08:32:43;101276.00;;;24.62;62.05
65880;BME280;52661;51.364;6.054;2022-08-03T08:35:09;101279.47;;;24.72;63.16
65880;BME280;52661;51.364;6.054;2022-08-03T08:37:36;101277.00;;;24.74;62.62
65880;BME280;52661;51.364;6.054;2022-08-03T08:40:02;101277.13;;;24.79;63.26
65880;BME280;52661;51.364;6.054;2022-08-03T08:42:28;101280.66;;;24.80;61.49
65880;BME280;52661;51.364;6.054;2022-08-03T08:44:53;101275.28;;;24.76;62.16
65880;BME280;52661;51.364;6.054;2022-08-03T08:47:23;101277.66;;;24.92;62.19
65880;BME280;52661;51.364;6.054;2022-08-03T08:49:52;101275.78;;;24.98;61.85
65880;BME280;52661;51.364;6.054;2022-08-03T08:52:22;101278.78;;;25.10;61.12
65880;BME280;52661;51.364;6.054;2022-08-03T08:54:49;101275.25;;;25.09;61.13
65880;BME280;52661;51.364;6.054;2022-08-03T08:57:16;101272.78;;;25.26;60.57
65880;BME280;52661;51.364;6.054;2022-08-03T08:59:43;101277.00;;;25.21;60.60
65880;BME280;52661;51.364;6.054;2022-08-03T09:02:08;101271.72;;;25.23;60.94
65880;BME280;52661;51.364;6.054;2022-08-03T09:04:34;101279.22;;;25.32;60.98
65880;BME280;52661;51.364;6.054;2022-08-03T09:07:02;101280.94;;;25.44;61.01
65880;BME280;52661;51.364;6.054;2022-08-03T09:09:28;101280.03;;;25.62;58.72
65880;BME280;52661;51.364;6.054;2022-08-03T09:11:53;101278.91;;;25.68;58.24
65880;BME280;52661;51.364;6.054;2022-08-03T09:14:18;101280.16;;;25.67;60.02
65880;BME280;52661;51.364;6.054;2022-08-03T09:16:57;101278.22;;;25.73;58.63
65880;BME280;52661;51.364;6.054;2022-08-03T09:19:24;101278.59;;;25.81;58.22
65880;BME280;52661;51.364;6.054;2022-08-03T09:24:34;101276.19;;;26.03;57.32
65880;BME280;52661;51.364;6.054;2022-08-03T09:26:59;101270.78;;;26.14;56.93
65880;BME280;52661;51.364;6.054;2022-08-03T09:29:25;101283.94;;;26.14;57.41
65880;BME280;52661;51.364;6.054;2022-08-03T09:31:59;101272.03;;;26.13;56.08
65880;BME280;52661;51.364;6.054;2022-08-03T09:34:25;101275.78;;;26.25;56.49
65880;BME280;52661;51.364;6.054;2022-08-03T09:36:53;101275.50;;;26.23;55.85
65880;BME280;52661;51.364;6.054;2022-08-03T09:39:20;101278.84;;;26.27;55.72
65880;BME280;52661;51.364;6.054;2022-08-03T09:42:02;101281.59;;;26.41;58.18
65880;BME280;52661;51.364;6.054;2022-08-03T09:44:54;101280.22;;;26.52;54.64
65880;BME280;52661;51.364;6.054;2022-08-03T09:47:30;101265.34;;;26.55;55.07
65880;BME280;52661;51.364;6.054;2022-08-03T09:50:00;101283.56;;;26.56;53.91
65880;BME280;52661;51.364;6.054;2022-08-03T09:52:38;101281.22;;;26.69;53.00
65880;BME280;52661;51.364;6.054;2022-08-03T09:55:08;101275.25;;;26.76;52.77
65880;BME280;52661;51.364;6.054;2022-08-03T09:57:34;101276.38;;;26.84;52.00
65880;BME280;52661;51.364;6.054;2022-08-03T10:00:06;101270.72;;;26.99;52.47
65880;BME280;52661;51.364;6.054;2022-08-03T10:02:34;101267.75;;;27.02;50.24
65880;BME280;52661;51.364;6.054;2022-08-03T10:05:00;101266.94;;;27.22;50.68
65880;BME280;52661;51.364;6.054;2022-08-03T10:07:25;101272.25;;;27.20;50.03
65880;BME280;52661;51.364;6.054;2022-08-03T10:09:57;101273.63;;;27.10;49.89
65880;BME280;52661;51.364;6.054;2022-08-03T10:12:23;101267.59;;;27.11;51.84
65880;BME280;52661;51.364;6.054;2022-08-03T10:14:49;101266.72;;;27.25;50.41
65880;BME280;52661;51.364;6.054;2022-08-03T10:17:15;101262.06;;;27.42;49.44
65880;BME280;52661;51.364;6.054;2022-08-03T10:19:40;101267.00;;;27.53;49.94
65880;BME280;52661;51.364;6.054;2022-08-03T10:22:18;101254.16;;;27.61;48.82
65880;BME280;52661;51.364;6.054;2022-08-03T10:24:55;101270.13;;;27.61;49.33
65880;BME280;52661;51.364;6.054;2022-08-03T10:27:24;101254.69;;;27.60;47.82
65880;BME280;52661;51.364;6.054;2022-08-03T10:29:55;101254.78;;;27.71;48.66
65880;BME280;52661;51.364;6.054;2022-08-03T10:32:27;101253.13;;;27.59;49.88
65880;BME280;52661;51.364;6.054;2022-08-03T10:35:04;101253.78;;;27.74;48.44
65880;BME280;52661;51.364;6.054;2022-08-03T10:37:31;101245.72;;;27.81;46.94
65880;BME280;52661;51.364;6.054;2022-08-03T10:39:59;101245.44;;;27.79;46.64
65880;BME280;52661;51.364;6.054;2022-08-03T10:42:25;101243.16;;;27.78;46.78
65880;BME280;52661;51.364;6.054;2022-08-03T10:45:05;101248.09;;;27.94;48.95
65880;BME280;52661;51.364;6.054;2022-08-03T10:47:32;101243.53;;;27.91;44.95
65880;BME280;52661;51.364;6.054;2022-08-03T10:49:58;101242.56;;;28.00;44.23
65880;BME280;52661;51.364;6.054;2022-08-03T10:52:24;101246.06;;;27.95;46.56
65880;BME280;52661;51.364;6.054;2022-08-03T10:54:49;101234.22;;;28.05;45.52
65880;BME280;52661;51.364;6.054;2022-08-03T10:57:50;101233.78;;;28.12;45.33
65880;BME280;52661;51.364;6.054;2022-08-03T11:00:22;101229.28;;;28.20;45.07
65880;BME280;52661;51.364;6.054;2022-08-03T11:03:17;101229.13;;;28.35;47.27
65880;BME280;52661;51.364;6.054;2022-08-03T11:05:45;101216.88;;;28.27;45.10
65880;BME280;52661;51.364;6.054;2022-08-03T11:08:27;101220.63;;;28.61;46.03
65880;BME280;52661;51.364;6.054;2022-08-03T11:16:35;101219.47;;;28.36;45.17
65880;BME280;52661;51.364;6.054;2022-08-03T11:22:22;101222.88;;;28.57;45.05
65880;BME280;52661;51.364;6.054;2022-08-03T11:27:33;101226.69;;;28.59;43.59
65880;BME280;52661;51.364;6.054;2022-08-03T11:30:07;101218.06;;;28.57;43.48
65880;BME280;52661;51.364;6.054;2022-08-03T11:35:14;101212.31;;;28.77;43.49
65880;BME280;52661;51.364;6.054;2022-08-03T11:40:36;101212.91;;;29.04;42.92
65880;BME280;52661;51.364;6.054;2022-08-03T11:43:04;101207.56;;;29.06;40.82
65880;BME280;52661;51.364;6.054;2022-08-03T11:45:31;101204.97;;;28.91;41.96
65880;BME280;52661;51.364;6.054;2022-08-03T11:47:56;101200.97;;;29.20;45.41
65880;BME280;52661;51.364;6.054;2022-08-03T11:50:24;101208.16;;;29.43;44.12
65880;BME280;52661;51.364;6.054;2022-08-03T11:52:50;101209.44;;;29.48;46.06
65880;BME280;52661;51.364;6.054;2022-08-03T11:55:18;101209.44;;;29.59;43.25
65880;BME280;52661;51.364;6.054;2022-08-03T11:57:46;101206.66;;;29.59;43.65
65880;BME280;52661;51.364;6.054;2022-08-03T12:00:25;101204.59;;;29.54;43.46
65880;BME280;52661;51.364;6.054;2022-08-03T12:03:05;101214.00;;;29.73;40.39
65880;BME280;52661;51.364;6.054;2022-08-03T12:05:46;101212.75;;;29.91;41.20
65880;BME280;52661;51.364;6.054;2022-08-03T12:08:14;101214.78;;;29.85;40.42
65880;BME280;52661;51.364;6.054;2022-08-03T12:10:46;101202.56;;;29.99;42.21
65880;BME280;52661;51.364;6.054;2022-08-03T12:13:12;101207.63;;;30.06;40.96
65880;BME280;52661;51.364;6.054;2022-08-03T12:15:37;101208.09;;;30.21;41.61
65880;BME280;52661;51.364;6.054;2022-08-03T12:18:12;101206.34;;;30.07;40.21
65880;BME280;52661;51.364;6.054;2022-08-03T12:20:39;101205.28;;;30.21;41.27
65880;BME280;52661;51.364;6.054;2022-08-03T12:23:05;101206.81;;;30.27;41.44
65880;BME280;52661;51.364;6.054;2022-08-03T12:25:33;101207.06;;;30.29;40.16
65880;BME280;52661;51.364;6.054;2022-08-03T12:28:19;101195.34;;;30.42;40.14
65880;BME280;52661;51.364;6.054;2022-08-03T12:30:48;101201.16;;;30.50;41.05
65880;BME280;52661;51.364;6.054;2022-08-03T12:33:17;101196.34;;;30.45;40.59
65880;BME280;52661;51.364;6.054;2022-08-03T12:35:45;101195.31;;;30.37;39.39
65880;BME280;52661;51.364;6.054;2022-08-03T12:38:11;101192.59;;;30.20;40.68
65880;BME280;52661;51.364;6.054;2022-08-03T12:40:37;101203.84;;;29.98;40.17
65880;BME280;52661;51.364;6.054;2022-08-03T12:43:10;101198.97;;;29.81;40.64
65880;BME280;52661;51.364;6.054;2022-08-03T12:45:36;101198.22;;;30.09;40.92
65880;BME280;52661;51.364;6.054;2022-08-03T12:48:02;101193.47;;;30.61;39.79
65880;BME280;52661;51.364;6.054;2022-08-03T12:50:30;101193.00;;;31.04;41.23
65880;BME280;52661;51.364;6.054;2022-08-03T12:52:57;101197.31;;;31.05;40.54
65880;BME280;52661;51.364;6.054;2022-08-03T12:55:24;101195.38;;;30.89;40.03
65880;BME280;52661;51.364;6.054;2022-08-03T12:57:51;101193.00;;;30.52;40.95
65880;BME280;52661;51.364;6.054;2022-08-03T13:00:18;101196.06;;;30.48;40.09
65880;BME280;52661;51.364;6.054;2022-08-03T13:02:44;101196.34;;;30.28;39.93
65880;BME280;52661;51.364;6.054;2022-08-03T13:05:11;101188.00;;;30.17;40.08
65880;BME280;52661;51.364;6.054;2022-08-03T13:07:40;101193.59;;;30.22;40.97
65880;BME280;52661;51.364;6.054;2022-08-03T13:10:06;101194.84;;;30.21;41.76
65880;BME280;52661;51.364;6.054;2022-08-03T13:12:31;101192.22;;;30.51;41.81
65880;BME280;52661;51.364;6.054;2022-08-03T13:14:58;101195.91;;;30.82;42.49
65880;BME280;52661;51.364;6.054;2022-08-03T13:17:24;101184.75;;;31.17;40.86
65880;BME280;52661;51.364;6.054;2022-08-03T13:19:50;101187.34;;;31.45;39.69
65880;BME280;52661;51.364;6.054;2022-08-03T13:22:20;101189.47;;;31.68;40.81
65880;BME280;52661;51.364;6.054;2022-08-03T13:24:48;101188.03;;;31.56;38.02